createdAt,value
2022-12-03T00:01:36.046Z,67.80
2022-12-03T00:04:04.308Z,59.00
2022-12-03T00:06:34.687Z,67.00
2022-12-03T00:09:04.612Z,67.10
2022-12-03T00:11:32.867Z,73.70
2022-12-03T00:14:01.020Z,70.90
2022-12-03T00:16:29.108Z,71.10
2022-12-03T00:18:57.182Z,59.90
2022-12-03T00:21:25.354Z,71.10
2022-12-03T00:23:53.457Z,77.20
2022-12-03T00:26:21.584Z,66.40
2022-12-03T00:28:49.776Z,66.50
2022-12-03T00:31:18.063Z,83.70
2022-12-03T00:33:46.165Z,69.40
2022-12-03T00:36:14.211Z,69.00
2022-12-03T00:38:42.326Z,73.70
2022-12-03T00:41:10.358Z,63.70
2022-12-03T00:43:38.430Z,68.70
2022-12-03T00:46:06.553Z,69.30
2022-12-03T00:48:34.677Z,71.00
2022-12-03T00:51:02.846Z,72.50
2022-12-03T00:53:30.903Z,81.20
2022-12-03T00:55:59.141Z,73.00
2022-12-03T00:58:27.186Z,74.60
2022-12-03T01:00:55.235Z,72.00
2022-12-03T01:03:23.256Z,72.30
2022-12-03T01:05:51.351Z,71.30
2022-12-03T01:08:19.496Z,71.90
2022-12-03T01:10:47.497Z,75.90
2022-12-03T01:13:15.541Z,70.30
2022-12-03T01:15:43.749Z,80.70
2022-12-03T01:18:11.836Z,85.00
2022-12-03T01:20:39.956Z,62.00
2022-12-03T01:23:08.060Z,66.00
2022-12-03T01:25:36.074Z,75.40
2022-12-03T01:28:04.169Z,76.30
2022-12-03T01:30:52.200Z,80.60
2022-12-03T01:33:20.283Z,67.10
2022-12-03T01:35:48.310Z,76.50
2022-12-03T01:38:16.324Z,68.30
2022-12-03T01:40:44.420Z,78.80
2022-12-03T01:43:12.420Z,71.10
2022-12-03T01:45:40.570Z,71.50
2022-12-03T01:48:13.804Z,78.10
2022-12-03T01:50:42.841Z,68.00
2022-12-03T01:53:15.726Z,73.40
2022-12-03T01:55:48.445Z,83.00
2022-12-03T01:58:20.379Z,84.20
2022-12-03T02:00:48.400Z,67.70
2022-12-03T02:03:23.492Z,80.90
2022-12-03T02:05:52.671Z,78.60
2022-12-03T02:08:31.023Z,74.90
2022-12-03T02:11:03.361Z,74.70
2022-12-03T02:13:32.253Z,68.00
2022-12-03T02:16:00.458Z,77.00
2022-12-03T02:18:28.599Z,81.60
2022-12-03T02:21:06.882Z,86.90
2022-12-03T02:23:45.754Z,83.50
2022-12-03T02:26:13.803Z,76.10
2022-12-03T02:28:42.116Z,86.20
2022-12-03T02:31:10.308Z,74.80
2022-12-03T02:33:38.824Z,86.30
2022-12-03T02:36:07.214Z,82.00
2022-12-03T02:38:36.411Z,96.00
2022-12-03T02:41:09.766Z,96.00
2022-12-03T02:43:38.997Z,81.90
2022-12-03T02:46:08.171Z,86.60
2022-12-03T02:48:38.909Z,85.50
2022-12-03T02:51:11.272Z,87.70
2022-12-03T02:53:44.813Z,82.50
2022-12-03T02:56:16.208Z,83.60
2022-12-03T02:58:47.128Z,94.30
2022-12-03T03:01:16.912Z,86.80
2022-12-03T03:03:47.432Z,81.60
2022-12-03T03:06:17.332Z,73.40
2022-12-03T03:08:45.686Z,81.70
2022-12-03T03:11:13.826Z,73.30
2022-12-03T03:13:42.206Z,94.70
2022-12-03T03:16:10.691Z,81.40
2022-12-03T03:18:39.859Z,82.20
2022-12-03T03:21:08.264Z,85.40
2022-12-03T03:23:36.418Z,82.00
2022-12-03T03:26:12.060Z,83.90
2022-12-03T03:28:48.830Z,88.60
2022-12-03T03:31:21.464Z,93.40
2022-12-03T03:33:50.399Z,95.40
2022-12-03T03:36:20.271Z,87.40
2022-12-03T03:38:49.035Z,94.80
2022-12-03T03:41:18.494Z,83.90
2022-12-03T03:43:48.522Z,72.40
2022-12-03T03:46:17.903Z,86.50
2022-12-03T03:48:48.726Z,100.90
2022-12-03T03:51:18.004Z,88.90
2022-12-03T03:53:49.097Z,89.70
2022-12-03T03:56:19.528Z,73.10
2022-12-03T03:58:47.717Z,77.90
2022-12-03T04:01:17.144Z,89.00
2022-12-03T04:03:45.363Z,87.40
2022-12-03T04:06:13.416Z,82.50
2022-12-03T04:08:41.451Z,72.80
2022-12-03T04:11:28.222Z,82.30
2022-12-03T04:13:56.272Z,74.50
2022-12-03T04:16:24.355Z,87.20
2022-12-03T04:18:52.421Z,83.80
2022-12-03T04:21:41.791Z,87.80
2022-12-03T04:24:11.728Z,77.10
2022-12-03T04:26:58.451Z,75.90
2022-12-03T04:29:26.462Z,75.30
2022-12-03T04:32:13.092Z,84.90
2022-12-03T04:34:59.923Z,80.20
2022-12-03T04:37:27.985Z,73.50
2022-12-03T04:39:56.116Z,86.70
2022-12-03T04:42:24.166Z,76.30
2022-12-03T04:44:52.531Z,65.40
2022-12-03T04:47:22.027Z,72.20
2022-12-03T04:49:51.839Z,73.90
2022-12-03T04:52:21.330Z,69.10
2022-12-03T04:54:49.410Z,69.50
2022-12-03T04:57:17.577Z,79.90
2022-12-03T04:59:45.861Z,73.40
2022-12-03T05:02:14.004Z,69.80
2022-12-03T05:04:43.424Z,75.80
2022-12-03T05:07:11.835Z,76.30
2022-12-03T05:09:39.919Z,76.70
2022-12-03T05:12:07.976Z,84.30
2022-12-03T05:14:36.731Z,84.30
2022-12-03T05:17:04.915Z,83.50
2022-12-03T05:19:51.735Z,82.80
2022-12-03T05:22:19.845Z,85.50
2022-12-03T05:24:47.865Z,98.10
2022-12-03T05:27:20.216Z,79.40
2022-12-03T05:29:52.055Z,87.20
2022-12-03T05:32:20.480Z,76.00
2022-12-03T05:34:48.550Z,57.90
2022-12-03T05:37:16.688Z,69.90
2022-12-03T05:39:44.727Z,67.80
2022-12-03T05:42:31.439Z,74.30
2022-12-03T05:44:59.477Z,73.40
2022-12-03T05:47:27.514Z,77.60
2022-12-03T05:49:55.610Z,73.10
2022-12-03T05:52:23.662Z,72.80
2022-12-03T05:54:51.989Z,82.60
2022-12-03T05:57:20.576Z,79.10
2022-12-03T05:59:48.615Z,83.90
2022-12-03T06:02:16.709Z,105.30
2022-12-03T06:04:44.855Z,93.50
2022-12-03T06:07:14.290Z,89.10
2022-12-03T06:09:42.571Z,79.90
2022-12-03T06:12:10.604Z,78.00
2022-12-03T06:14:38.701Z,87.80
2022-12-03T06:17:06.852Z,99.00
2022-12-03T06:19:35.012Z,91.40
2022-12-03T06:22:03.144Z,93.00
2022-12-03T06:24:31.193Z,91.90
2022-12-03T06:26:59.259Z,102.40
2022-12-03T06:29:27.298Z,86.40
2022-12-03T06:31:55.454Z,89.50
2022-12-03T06:34:23.494Z,92.20
2022-12-03T06:36:51.527Z,81.70
2022-12-03T06:39:19.684Z,79.70
2022-12-03T06:41:47.715Z,93.30
2022-12-03T06:44:15.782Z,75.50
2022-12-03T06:46:43.916Z,76.80
2022-12-03T06:49:11.949Z,89.70
2022-12-03T06:51:40.093Z,75.30
2022-12-03T06:54:08.171Z,63.20
2022-12-03T06:56:41.885Z,22.90
2022-12-03T06:59:14.026Z,79.90
2022-12-03T07:01:42.344Z,84.70
2022-12-03T07:04:10.489Z,86.20
2022-12-03T07:06:38.603Z,78.20
2022-12-03T07:09:06.691Z,61.00
2022-12-03T07:11:40.567Z,57.00
2022-12-03T07:14:11.636Z,61.80
2022-12-03T07:16:40.658Z,62.60
2022-12-03T07:19:09.817Z,68.30
2022-12-03T07:21:38.269Z,66.60
2022-12-03T07:24:06.885Z,86.60
2022-12-03T07:26:35.019Z,82.10
2022-12-03T07:29:03.233Z,71.00
2022-12-03T07:31:31.430Z,71.90
2022-12-03T07:33:59.652Z,76.40
2022-12-03T07:36:27.669Z,65.20
2022-12-03T07:38:55.934Z,67.30
2022-12-03T07:41:23.959Z,64.80
2022-12-03T07:43:52.009Z,68.30
2022-12-03T07:46:20.113Z,66.20
2022-12-03T07:48:48.273Z,101.80
2022-12-03T07:51:16.438Z,104.80
2022-12-03T07:53:44.453Z,86.10
2022-12-03T07:56:12.548Z,83.40
2022-12-03T07:58:40.658Z,82.00
2022-12-03T08:01:08.843Z,80.10
2022-12-03T08:03:37.006Z,75.70
2022-12-03T08:06:05.223Z,73.30
2022-12-03T08:08:33.273Z,81.20
2022-12-03T08:11:02.322Z,68.20
2022-12-03T08:13:30.874Z,66.50
2022-12-03T08:16:09.142Z,73.00
2022-12-03T08:18:37.328Z,79.80
2022-12-03T08:21:06.858Z,77.30
2022-12-03T08:23:34.910Z,99.80
2022-12-03T08:26:27.598Z,77.90
2022-12-03T08:28:55.715Z,81.40
2022-12-03T08:31:32.765Z,74.70
2022-12-03T08:34:23.737Z,81.20
2022-12-03T08:36:58.060Z,61.30
2022-12-03T08:39:30.515Z,64.30
2022-12-03T08:42:28.146Z,80.30
2022-12-03T08:44:57.237Z,90.70
2022-12-03T08:47:25.509Z,268.70
2022-12-03T08:50:03.348Z,108.50
2022-12-03T08:52:33.877Z,145.40
2022-12-03T08:55:38.221Z,65.10
2022-12-03T08:58:32.255Z,84.70
2022-12-03T09:01:05.930Z,94.30
2022-12-03T09:03:34.636Z,153.40
2022-12-03T09:06:02.811Z,110.80
2022-12-03T09:08:31.723Z,146.00
2022-12-03T09:10:59.796Z,176.20
2022-12-03T09:13:27.812Z,82.70
2022-12-03T09:15:55.965Z,130.70
2022-12-03T09:18:24.093Z,116.90
2022-12-03T09:20:52.112Z,83.90
2022-12-03T09:23:20.158Z,100.00
2022-12-03T09:25:48.174Z,194.10
2022-12-03T09:28:16.170Z,112.90
2022-12-03T09:30:44.216Z,152.40
2022-12-03T09:33:12.364Z,128.90
2022-12-03T09:35:40.407Z,68.20
2022-12-03T09:38:08.448Z,60.80
2022-12-03T09:40:36.524Z,87.60
2022-12-03T09:43:05.271Z,77.80
2022-12-03T09:45:33.465Z,67.10
2022-12-03T09:48:04.136Z,87.70
2022-12-03T09:50:32.722Z,70.40
2022-12-03T09:53:03.971Z,70.30
2022-12-03T09:55:32.644Z,77.20
2022-12-03T09:58:00.937Z,71.00
2022-12-03T10:00:30.498Z,60.80
2022-12-03T10:03:03.143Z,64.10
2022-12-03T10:05:31.214Z,65.50
2022-12-03T10:08:06.918Z,67.80
2022-12-03T10:10:36.557Z,88.70
2022-12-03T10:13:06.177Z,104.90
2022-12-03T10:15:34.418Z,90.60
2022-12-03T10:18:21.798Z,72.10
2022-12-03T10:20:51.500Z,67.70
2022-12-03T10:23:24.069Z,72.60
2022-12-03T10:25:58.282Z,67.60
2022-12-03T10:28:37.007Z,70.70
2022-12-03T10:31:07.723Z,92.00
2022-12-03T10:33:44.994Z,80.00
2022-12-03T10:36:19.564Z,92.20
2022-12-03T10:39:12.985Z,73.60
2022-12-03T10:41:42.890Z,74.20
2022-12-03T10:44:22.497Z,92.70
2022-12-03T10:47:16.049Z,74.60
2022-12-03T10:49:44.298Z,72.90
2022-12-03T10:52:26.059Z,78.00
2022-12-03T10:57:23.630Z,72.20
2022-12-03T10:59:51.789Z,65.30
2022-12-03T11:02:22.815Z,73.30
2022-12-03T11:04:51.931Z,74.50
2022-12-03T11:07:22.294Z,69.90
2022-12-03T11:09:52.606Z,163.60
2022-12-03T11:12:26.364Z,138.60
2022-12-03T11:14:55.125Z,95.70
2022-12-03T11:17:41.624Z,72.50
2022-12-03T11:20:32.386Z,74.80
2022-12-03T11:23:00.485Z,62.90
2022-12-03T11:25:28.553Z,66.00
2022-12-03T11:28:11.941Z,56.80
2022-12-03T11:30:48.925Z,64.00
2022-12-03T11:33:27.040Z,71.10
2022-12-03T11:36:04.330Z,67.90
2022-12-03T11:38:52.243Z,90.20
2022-12-03T11:41:28.919Z,58.60
2022-12-03T11:44:04.275Z,77.30
2022-12-03T11:46:43.807Z,62.10
2022-12-03T11:49:35.737Z,58.30
2022-12-03T11:52:20.261Z,56.20
2022-12-03T11:54:53.214Z,53.80
2022-12-03T11:57:31.010Z,83.60
2022-12-03T12:00:21.202Z,66.40
2022-12-03T12:02:50.826Z,49.30
2022-12-03T12:05:29.559Z,65.60
2022-12-03T12:07:57.803Z,64.00
2022-12-03T12:10:39.225Z,73.70
2022-12-03T12:13:24.881Z,71.60
2022-12-03T12:15:53.269Z,71.70
2022-12-03T12:18:43.638Z,59.70
2022-12-03T12:21:42.016Z,81.80
2022-12-03T12:24:29.195Z,67.20
2022-12-03T12:27:00.171Z,74.70
2022-12-03T12:29:28.570Z,85.90
2022-12-03T12:32:17.495Z,77.30
2022-12-03T12:34:51.297Z,71.10
2022-12-03T12:37:36.454Z,71.10
2022-12-03T12:40:12.954Z,66.20
2022-12-03T12:42:50.367Z,65.80
2022-12-03T12:45:30.370Z,69.30
2022-12-03T12:48:07.290Z,67.40
2022-12-03T12:50:37.334Z,67.60
2022-12-03T12:53:26.163Z,65.90
2022-12-03T12:56:07.142Z,67.10
2022-12-03T12:58:36.168Z,66.50
2022-12-03T13:01:08.067Z,64.50
2022-12-03T13:03:39.867Z,57.50
2022-12-03T13:06:15.157Z,54.70
2022-12-03T13:08:46.024Z,64.10
2022-12-03T13:11:39.683Z,61.90
2022-12-03T13:14:16.331Z,69.30
2022-12-03T13:16:45.271Z,59.60
2022-12-03T13:19:21.767Z,63.60
2022-12-03T13:21:51.979Z,65.10
2022-12-03T13:24:41.512Z,60.10
2022-12-03T13:27:19.749Z,64.30
2022-12-03T13:30:09.926Z,58.20
2022-12-03T13:32:38.541Z,63.40
2022-12-03T13:35:31.153Z,69.50
2022-12-03T13:37:59.567Z,58.80
2022-12-03T13:40:30.883Z,54.40
2022-12-03T13:42:59.594Z,65.10
2022-12-03T13:45:40.507Z,71.40
2022-12-03T13:48:17.728Z,69.50
2022-12-03T13:50:46.336Z,60.60
2022-12-03T13:53:23.393Z,68.00
2022-12-03T13:55:59.198Z,47.90
2022-12-03T13:58:27.261Z,77.20
2022-12-03T14:00:55.680Z,77.50
2022-12-03T14:03:23.718Z,67.70
2022-12-03T14:05:51.725Z,68.90
2022-12-03T14:08:19.853Z,64.30
2022-12-03T14:10:47.976Z,74.20
2022-12-03T14:13:15.980Z,78.80
2022-12-03T14:15:44.143Z,87.80
2022-12-03T14:18:12.174Z,79.10
2022-12-03T14:20:40.198Z,88.90
2022-12-03T14:23:08.259Z,84.40
2022-12-03T14:25:36.322Z,95.80
2022-12-03T14:28:08.776Z,88.20
2022-12-03T14:30:37.283Z,104.90
2022-12-03T14:33:05.342Z,79.70
2022-12-03T14:35:33.343Z,79.80
2022-12-03T14:38:01.353Z,81.20
2022-12-03T14:40:29.362Z,91.30
2022-12-03T14:42:57.424Z,86.90
2022-12-03T14:45:27.779Z,87.10
2022-12-03T14:47:56.253Z,91.00
2022-12-03T14:50:26.943Z,40.70
2022-12-03T14:52:55.070Z,84.90
2022-12-03T14:55:23.276Z,95.30
2022-12-03T14:57:51.421Z,74.00
2022-12-03T15:00:20.392Z,66.70
2022-12-03T15:02:48.475Z,77.40
2022-12-03T15:05:16.744Z,81.70
2022-12-03T15:07:45.150Z,101.00
2022-12-03T15:10:13.265Z,100.70
2022-12-03T15:12:41.295Z,115.20
2022-12-03T15:15:10.460Z,102.80
2022-12-03T15:17:38.610Z,84.50
2022-12-03T15:20:07.637Z,88.60
2022-12-03T15:22:35.655Z,78.20
2022-12-03T15:25:04.163Z,78.00
2022-12-03T15:27:32.218Z,82.70
2022-12-03T15:30:00.334Z,86.90
2022-12-03T15:32:28.474Z,83.60
2022-12-03T15:34:56.549Z,92.30
2022-12-03T15:37:27.765Z,81.70
2022-12-03T15:39:56.240Z,78.90
2022-12-03T15:42:24.640Z,87.90
2022-12-03T15:44:52.692Z,93.40
2022-12-03T15:47:20.777Z,106.80
2022-12-03T15:49:49.048Z,119.90
2022-12-03T15:52:17.179Z,147.40
2022-12-03T15:54:46.225Z,178.50
2022-12-03T15:57:14.269Z,193.20
2022-12-03T15:59:43.300Z,191.80
2022-12-03T16:02:11.476Z,207.70
2022-12-03T16:04:39.814Z,201.00
2022-12-03T16:07:07.931Z,169.40
2022-12-03T16:09:36.105Z,159.80
2022-12-03T16:12:04.364Z,157.10
2022-12-03T16:14:32.623Z,207.90
2022-12-03T16:17:01.213Z,255.90
2022-12-03T16:19:29.209Z,213.20
2022-12-03T16:21:57.388Z,191.80
2022-12-03T16:24:25.446Z,235.40
2022-12-03T16:26:53.580Z,207.50
2022-12-03T16:29:21.708Z,213.80
2022-12-03T16:31:49.761Z,209.90
2022-12-03T16:34:17.813Z,182.80
2022-12-03T16:36:45.971Z,166.20
2022-12-03T16:39:14.038Z,209.30
2022-12-03T16:41:42.127Z,215.00
2022-12-03T16:44:20.254Z,230.20
2022-12-03T16:46:48.450Z,213.00
2022-12-03T16:49:16.927Z,244.70
2022-12-03T16:51:44.993Z,260.20
2022-12-03T16:54:13.035Z,236.60
2022-12-03T16:56:41.035Z,226.40
2022-12-03T16:59:09.070Z,212.00
2022-12-03T17:01:37.154Z,200.90
2022-12-03T17:04:05.215Z,180.70
2022-12-03T17:06:33.238Z,179.20
2022-12-03T17:09:01.697Z,168.60
2022-12-03T17:11:29.814Z,161.40
2022-12-03T17:13:57.851Z,165.00
2022-12-03T17:16:25.984Z,171.90
2022-12-03T17:18:54.058Z,198.60
2022-12-03T17:21:22.233Z,220.30
2022-12-03T17:23:51.225Z,252.60
2022-12-03T17:26:19.928Z,251.30
2022-12-03T17:28:48.026Z,266.10
2022-12-03T17:31:16.192Z,236.80
2022-12-03T17:33:44.244Z,253.00
2022-12-03T17:36:12.298Z,302.20
2022-12-03T17:38:40.681Z,281.80
2022-12-03T17:41:08.777Z,270.50
2022-12-03T17:43:36.868Z,229.20
2022-12-03T17:46:06.823Z,235.70
2022-12-03T17:48:35.537Z,209.30
2022-12-03T17:51:03.696Z,183.40
2022-12-03T17:53:31.715Z,147.30
2022-12-03T17:55:59.754Z,142.20
2022-12-03T17:58:28.668Z,128.70
2022-12-03T18:01:02.069Z,119.00
2022-12-03T18:03:31.782Z,130.00
2022-12-03T18:05:59.920Z,140.70
2022-12-03T18:08:28.094Z,134.90
2022-12-03T18:10:56.203Z,149.80
2022-12-03T18:13:24.268Z,118.20
2022-12-03T18:15:52.320Z,117.40
2022-12-03T18:18:20.392Z,113.10
2022-12-03T18:20:48.472Z,114.70
2022-12-03T18:23:16.526Z,119.40
2022-12-03T18:25:44.612Z,140.30
2022-12-03T18:28:12.672Z,130.00
2022-12-03T18:30:40.716Z,117.10
2022-12-03T18:33:08.767Z,105.60
2022-12-03T18:35:37.014Z,98.30
2022-12-03T18:38:05.418Z,108.00
2022-12-03T18:40:33.542Z,99.50
2022-12-03T18:43:01.557Z,108.60
2022-12-03T18:45:29.605Z,140.80
2022-12-03T18:47:57.809Z,126.40
2022-12-03T18:50:26.068Z,149.80
2022-12-03T18:52:54.104Z,186.70
2022-12-03T18:55:22.258Z,163.40
2022-12-03T18:57:50.347Z,159.10
2022-12-03T19:00:18.755Z,175.60
2022-12-03T19:03:03.953Z,179.40
2022-12-03T19:05:34.320Z,164.10
2022-12-03T19:08:03.306Z,130.70
2022-12-03T19:10:31.444Z,162.10
2022-12-03T19:12:59.521Z,131.00
2022-12-03T19:15:27.614Z,107.30
2022-12-03T19:17:55.688Z,118.20
2022-12-03T19:20:23.741Z,102.50
2022-12-03T19:22:51.732Z,95.20
2022-12-03T19:25:19.812Z,101.90
2022-12-03T19:27:50.253Z,90.30
2022-12-03T19:30:18.326Z,83.20
2022-12-03T19:32:46.653Z,88.20
2022-12-03T19:35:14.671Z,78.70
2022-12-03T19:37:42.832Z,81.50
2022-12-03T19:40:11.103Z,82.50
2022-12-03T19:42:39.266Z,85.10
2022-12-03T19:45:08.740Z,75.10
2022-12-03T19:47:37.327Z,70.30
2022-12-03T19:50:06.816Z,76.20
2022-12-03T19:55:03.780Z,82.30
2022-12-03T19:57:31.826Z,87.70
2022-12-03T20:00:01.296Z,95.70
2022-12-03T20:02:29.564Z,100.50
2022-12-03T20:04:57.850Z,99.60
2022-12-03T20:07:25.979Z,93.40
2022-12-03T20:09:54.500Z,96.80
2022-12-03T20:12:22.805Z,102.10
2022-12-03T20:14:51.855Z,78.00
2022-12-03T20:17:20.021Z,89.20
2022-12-03T20:19:48.241Z,87.20
2022-12-03T20:22:16.285Z,80.00
2022-12-03T20:24:44.334Z,71.90
2022-12-03T20:27:12.372Z,68.60
2022-12-03T20:29:40.384Z,82.80
2022-12-03T20:32:08.719Z,86.70
2022-12-03T20:34:36.922Z,77.20
2022-12-03T20:37:04.977Z,87.60
2022-12-03T20:39:33.033Z,66.70
2022-12-03T20:42:01.082Z,76.90
2022-12-03T20:44:29.157Z,76.50
2022-12-03T20:46:57.240Z,80.60
2022-12-03T20:49:25.287Z,77.90
2022-12-03T20:51:53.358Z,75.70
2022-12-03T20:54:21.480Z,65.00
2022-12-03T20:56:50.207Z,75.50
2022-12-03T20:59:18.349Z,75.90
2022-12-03T21:01:46.565Z,69.70
2022-12-03T21:04:16.240Z,62.00
2022-12-03T21:06:45.668Z,59.80
2022-12-03T21:09:14.274Z,78.80
2022-12-03T21:11:42.689Z,61.70
2022-12-03T21:14:11.414Z,73.40
2022-12-03T21:17:06.643Z,68.90
2022-12-03T21:19:28.425Z,63.90
2022-12-03T21:21:56.607Z,59.20
2022-12-03T21:24:24.834Z,63.90
2022-12-03T21:26:52.913Z,69.70
2022-12-03T21:29:20.939Z,69.20
2022-12-03T21:31:48.980Z,69.90
2022-12-03T21:34:17.136Z,64.10
2022-12-03T21:36:45.185Z,60.10
2022-12-03T21:39:13.261Z,110.60
2022-12-03T21:41:41.395Z,94.70
2022-12-03T21:44:30.993Z,68.50
2022-12-03T21:49:42.080Z,87.40
2022-12-03T21:52:10.730Z,66.10
2022-12-03T21:54:38.922Z,60.50
2022-12-03T21:57:07.053Z,72.10
2022-12-03T21:59:35.245Z,69.20
2022-12-03T22:02:03.937Z,67.90
2022-12-03T22:04:32.147Z,62.50
2022-12-03T22:07:00.196Z,62.20
2022-12-03T22:09:28.397Z,62.50
2022-12-03T22:11:59.367Z,42.60
2022-12-03T22:14:28.403Z,68.40
2022-12-03T22:16:56.512Z,53.90
2022-12-03T22:19:26.117Z,58.10
2022-12-03T22:21:54.204Z,54.70
2022-12-03T22:24:23.882Z,54.90
2022-12-03T22:26:53.644Z,62.90
2022-12-03T22:29:22.091Z,56.20
2022-12-03T22:31:50.409Z,62.40
2022-12-03T22:34:18.579Z,61.60
2022-12-03T22:36:46.655Z,56.30
2022-12-03T22:39:14.701Z,53.80
2022-12-03T22:41:42.776Z,64.30
2022-12-03T22:44:11.594Z,55.30
2022-12-03T22:46:39.808Z,57.50
2022-12-03T22:49:08.166Z,58.20
2022-12-03T22:51:36.324Z,49.20
2022-12-03T22:54:05.696Z,51.40
2022-12-03T22:56:33.825Z,54.70
2022-12-03T22:59:01.906Z,47.90
2022-12-03T23:01:35.606Z,53.00
2022-12-03T23:04:04.692Z,49.70
2022-12-03T23:06:35.175Z,46.40
2022-12-03T23:09:05.736Z,46.10
2022-12-03T23:11:34.597Z,50.60
2022-12-03T23:14:03.354Z,58.60
2022-12-03T23:16:33.350Z,49.20
2022-12-03T23:19:02.717Z,55.80
2022-12-03T23:21:34.183Z,61.60
2022-12-03T23:24:03.886Z,61.60
2022-12-03T23:26:36.042Z,67.10
2022-12-03T23:29:07.905Z,59.60
2022-12-03T23:34:07.525Z,48.20
2022-12-03T23:36:42.770Z,47.00
2022-12-03T23:39:13.094Z,48.60
2022-12-03T23:41:44.635Z,54.60
2022-12-03T23:44:12.673Z,52.60
2022-12-03T23:46:40.848Z,44.90
2022-12-03T23:49:14.944Z,44.80
2022-12-03T23:51:43.038Z,38.50
2022-12-03T23:54:12.263Z,43.80
2022-12-03T23:56:42.523Z,41.10
2022-12-03T23:59:10.636Z,51.80
